createdAt,value
2023-03-06T00:00:33.264Z,96207.41
2023-03-06T00:02:59.757Z,96198.41
2023-03-06T00:05:26.546Z,96204.22
2023-03-06T00:07:53.121Z,96196.19
2023-03-06T00:10:22.592Z,96196.59
2023-03-06T00:12:52.169Z,96185.38
2023-03-06T00:15:19.114Z,96193.44
2023-03-06T00:17:45.506Z,96188.78
2023-03-06T00:20:12.776Z,96188.22
2023-03-06T00:22:40.359Z,96181.03
2023-03-06T00:25:08.400Z,96166.63
2023-03-06T00:27:34.883Z,96166.81
2023-03-06T00:30:01.754Z,96161.03
2023-03-06T00:32:28.919Z,96163.06
2023-03-06T00:34:55.940Z,96161.09
2023-03-06T00:37:23.880Z,96153.31
2023-03-06T00:39:50.792Z,96145.91
2023-03-06T00:42:18.468Z,96151.56
2023-03-06T00:44:45.912Z,96146.19
2023-03-06T00:47:13.303Z,96146.81
2023-03-06T00:49:39.731Z,96145.75
2023-03-06T00:52:06.109Z,96142.75
2023-03-06T00:54:32.598Z,96147.97
2023-03-06T00:56:59.024Z,96142.31
2023-03-06T00:59:25.537Z,96135.50
2023-03-06T01:01:52.058Z,96132.31
2023-03-06T01:04:18.688Z,96130.28
2023-03-06T01:06:45.297Z,96128.72
2023-03-06T01:09:11.718Z,96133.91
2023-03-06T01:11:38.208Z,96134.03
2023-03-06T01:14:04.794Z,96130.13
2023-03-06T01:16:31.459Z,96127.53
2023-03-06T01:18:58.543Z,96127.47
2023-03-06T01:21:25.061Z,96123.66
2023-03-06T01:23:51.556Z,96124.72
2023-03-06T01:26:18.206Z,96115.25
2023-03-06T01:28:44.685Z,96124.34
2023-03-06T01:31:11.373Z,96114.06
2023-03-06T01:33:38.257Z,96107.06
2023-03-06T01:36:11.378Z,96105.03
2023-03-06T01:38:38.226Z,96105.97
2023-03-06T01:41:05.463Z,96101.47
2023-03-06T01:43:34.484Z,96097.94
2023-03-06T01:46:25.028Z,96097.28
2023-03-06T01:48:59.175Z,96085.25
2023-03-06T01:51:30.394Z,96080.28
2023-03-06T01:54:00.030Z,96079.63
2023-03-06T01:56:26.741Z,96081.66
2023-03-06T01:58:53.517Z,96079.03
2023-03-06T02:01:20.834Z,96071.66
2023-03-06T02:03:50.044Z,96067.47
2023-03-06T02:06:19.796Z,96065.31
2023-03-06T02:08:48.939Z,96051.81
2023-03-06T02:11:22.062Z,96042.06
2023-03-06T02:13:50.737Z,96048.06
2023-03-06T02:16:20.055Z,96042.41
2023-03-06T02:18:47.189Z,96044.88
2023-03-06T02:21:21.768Z,96049.72
2023-03-06T02:24:10.420Z,96052.09
2023-03-06T02:26:38.057Z,96044.88
2023-03-06T02:29:04.831Z,96052.09
2023-03-06T02:31:33.058Z,96039.25
2023-03-06T02:34:05.775Z,96030.69
2023-03-06T02:36:35.145Z,96034.44
2023-03-06T02:39:01.889Z,96027.63
2023-03-06T02:41:28.693Z,96026.94
2023-03-06T02:43:55.247Z,96024.47
2023-03-06T02:46:21.736Z,96025.16
2023-03-06T02:48:48.178Z,96015.34
2023-03-06T02:51:14.612Z,96015.94
2023-03-06T02:53:41.083Z,96011.06
2023-03-06T02:56:07.780Z,96012.28
2023-03-06T02:58:34.249Z,96012.16
2023-03-06T03:01:00.699Z,96005.28
2023-03-06T03:03:27.108Z,96009.59
2023-03-06T03:05:53.775Z,96005.22
2023-03-06T03:08:20.221Z,96006.84
2023-03-06T03:10:46.687Z,95998.97
2023-03-06T03:13:13.203Z,95995.41
2023-03-06T03:15:39.798Z,96007.44
2023-03-06T03:18:06.179Z,95999.97
2023-03-06T03:20:32.838Z,96001.13
2023-03-06T03:22:59.316Z,95999.66
2023-03-06T03:25:26.265Z,96003.06
2023-03-06T03:27:53.015Z,95998.31
2023-03-06T03:30:19.669Z,95997.25
2023-03-06T03:32:46.265Z,96007.38
2023-03-06T03:35:12.765Z,95995.34
2023-03-06T03:37:39.317Z,95999.69
2023-03-06T03:40:07.277Z,95990.44
2023-03-06T03:42:33.904Z,95993.75
2023-03-06T03:45:00.365Z,95983.34
2023-03-06T03:47:26.726Z,95992.22
2023-03-06T03:49:53.151Z,95978.84
2023-03-06T03:52:19.572Z,95976.38
2023-03-06T03:54:46.327Z,95971.34
2023-03-06T03:57:12.719Z,95969.16
2023-03-06T03:59:39.132Z,95962.63
2023-03-06T04:02:05.671Z,95963.78
2023-03-06T04:04:32.198Z,95960.75
2023-03-06T04:06:58.702Z,95958.44
2023-03-06T04:09:25.160Z,95957.34
2023-03-06T04:11:51.870Z,95961.06
2023-03-06T04:14:18.335Z,95960.88
2023-03-06T04:16:44.837Z,95954.66
2023-03-06T04:19:11.667Z,95951.06
2023-03-06T04:21:38.117Z,95955.53
2023-03-06T04:24:04.984Z,95956.72
2023-03-06T04:26:31.511Z,95954.66
2023-03-06T04:28:58.599Z,95960.00
2023-03-06T04:31:25.436Z,95959.00
2023-03-06T04:33:51.875Z,95956.19
2023-03-06T04:36:25.396Z,95951.41
2023-03-06T04:38:51.831Z,95935.00
2023-03-06T04:41:18.244Z,95935.00
2023-03-06T04:43:44.737Z,95945.41
2023-03-06T04:46:11.320Z,95944.38
2023-03-06T04:48:37.781Z,95937.00
2023-03-06T04:51:04.428Z,95936.66
2023-03-06T04:53:31.176Z,95946.28
2023-03-06T04:55:57.564Z,95943.53
2023-03-06T04:58:24.040Z,95938.63
2023-03-06T05:00:50.862Z,95941.22
2023-03-06T05:03:17.490Z,95940.22
2023-03-06T05:05:43.899Z,95942.81
2023-03-06T05:08:13.293Z,95938.63
2023-03-06T05:10:39.834Z,95935.00
2023-03-06T05:13:06.274Z,95940.63
2023-03-06T05:15:32.994Z,95939.34
2023-03-06T05:17:59.448Z,95944.97
2023-03-06T05:20:26.249Z,95944.97
2023-03-06T05:22:52.768Z,95947.75
2023-03-06T05:25:19.258Z,95948.97
2023-03-06T05:27:45.758Z,95952.97
2023-03-06T05:30:14.094Z,95944.09
2023-03-06T05:32:40.531Z,95948.16
2023-03-06T05:35:07.555Z,95930.88
2023-03-06T05:37:33.985Z,95940.94
2023-03-06T05:40:00.806Z,95943.75
2023-03-06T05:42:30.999Z,95940.94
2023-03-06T05:44:57.422Z,95937.31
2023-03-06T05:47:23.854Z,95942.09
2023-03-06T05:49:50.334Z,95940.06
2023-03-06T05:52:17.493Z,95948.03
2023-03-06T05:54:44.007Z,95940.94
2023-03-06T05:57:10.454Z,95940.94
2023-03-06T05:59:36.996Z,95941.75
2023-03-06T06:02:05.308Z,95934.88
2023-03-06T06:04:31.762Z,95936.00
2023-03-06T06:07:00.321Z,95938.03
2023-03-06T06:09:27.421Z,95944.25
2023-03-06T06:11:56.939Z,95940.50
2023-03-06T06:14:24.086Z,95939.75
2023-03-06T06:16:51.407Z,95938.38
2023-03-06T06:19:20.978Z,95937.16
2023-03-06T06:21:49.975Z,95931.31
2023-03-06T06:24:18.147Z,95930.06
2023-03-06T06:26:45.331Z,95929.78
2023-03-06T06:29:12.926Z,95942.09
2023-03-06T06:31:40.278Z,95939.63
2023-03-06T06:34:07.723Z,95929.50
2023-03-06T06:36:34.331Z,95947.31
2023-03-06T06:39:00.892Z,95937.31
2023-03-06T06:41:46.134Z,95946.44
2023-03-06T06:44:16.110Z,95940.78
2023-03-06T06:49:31.969Z,95948.31
2023-03-06T06:51:58.391Z,95944.69
2023-03-06T06:54:24.962Z,95947.44
2023-03-06T06:56:51.443Z,95951.19
2023-03-06T06:59:17.904Z,95950.19
2023-03-06T07:01:44.641Z,95951.97
2023-03-06T07:04:14.658Z,95949.31
2023-03-06T07:06:42.275Z,95963.78
2023-03-06T07:09:08.855Z,95958.13
2023-03-06T07:11:37.513Z,95958.84
2023-03-06T07:14:04.098Z,95971.75
2023-03-06T07:16:30.506Z,95964.59
2023-03-06T07:18:57.016Z,95963.19
2023-03-06T07:21:23.698Z,95964.59
2023-03-06T07:23:50.289Z,95966.47
2023-03-06T07:26:16.708Z,95966.53
2023-03-06T07:28:52.035Z,95959.94
2023-03-06T07:31:25.789Z,95964.50
2023-03-06T07:33:54.670Z,95960.09
2023-03-06T07:36:22.761Z,95972.81
2023-03-06T07:38:49.476Z,95971.47
2023-03-06T07:41:16.525Z,95967.38
2023-03-06T07:43:44.979Z,95965.66
2023-03-06T07:46:13.103Z,95979.84
2023-03-06T07:48:40.133Z,95969.16
2023-03-06T07:51:13.163Z,95975.31
2023-03-06T07:53:39.586Z,95978.03
2023-03-06T07:56:08.909Z,95986.22
2023-03-06T07:58:36.440Z,95979.69
2023-03-06T08:01:04.532Z,95991.28
2023-03-06T08:03:31.059Z,95980.72
2023-03-06T08:06:14.300Z,95983.59
2023-03-06T08:08:42.833Z,95985.66
2023-03-06T08:11:11.343Z,95987.78
2023-03-06T08:13:38.685Z,95988.28
2023-03-06T08:16:06.296Z,95990.50
2023-03-06T08:18:33.183Z,95993.25
2023-03-06T08:21:08.907Z,95992.34
2023-03-06T08:23:35.619Z,95989.47
2023-03-06T08:26:07.787Z,95990.72
2023-03-06T08:28:34.963Z,95983.19
2023-03-06T08:31:26.823Z,95997.00
2023-03-06T08:33:55.037Z,95993.94
2023-03-06T08:36:21.999Z,95993.75
2023-03-06T08:38:48.441Z,95994.50
2023-03-06T08:41:15.083Z,95989.50
2023-03-06T08:43:41.928Z,95995.63
2023-03-06T08:46:09.743Z,95995.53
2023-03-06T08:48:36.208Z,95994.09
2023-03-06T08:51:02.678Z,95990.69
2023-03-06T08:53:42.170Z,95994.00
2023-03-06T08:56:22.266Z,95988.25
2023-03-06T08:58:49.916Z,95998.56
2023-03-06T09:01:21.709Z,95992.97
2023-03-06T09:03:48.996Z,95990.50
2023-03-06T09:06:16.212Z,95998.25
2023-03-06T09:08:44.407Z,95998.47
2023-03-06T09:11:15.341Z,95998.53
2023-03-06T09:13:43.019Z,96005.06
2023-03-06T09:16:11.225Z,95996.31
2023-03-06T09:18:37.929Z,96000.13
2023-03-06T09:21:05.802Z,96003.53
2023-03-06T09:23:32.911Z,96002.88
2023-03-06T09:26:00.680Z,96007.94
2023-03-06T09:28:27.509Z,96006.78
2023-03-06T09:30:54.410Z,96008.66
2023-03-06T09:33:21.697Z,96008.84
2023-03-06T09:35:51.921Z,96007.28
2023-03-06T09:38:22.826Z,96008.78
2023-03-06T09:40:54.950Z,95997.69
2023-03-06T09:43:30.909Z,95998.13
2023-03-06T09:45:58.597Z,96000.38
2023-03-06T09:48:38.891Z,96015.19
2023-03-06T09:51:15.011Z,96015.19
2023-03-06T09:53:49.800Z,96017.00
2023-03-06T09:56:30.995Z,96010.66
2023-03-06T09:59:33.223Z,96010.84
2023-03-06T10:02:19.673Z,96008.72
2023-03-06T10:04:54.805Z,96004.56
2023-03-06T10:07:50.223Z,96009.00
2023-03-06T10:10:25.906Z,96004.88
2023-03-06T10:13:00.402Z,96010.56
2023-03-06T10:15:32.118Z,96011.16
2023-03-06T10:17:58.603Z,96007.00
2023-03-06T10:20:28.399Z,96002.50
2023-03-06T10:23:27.442Z,96004.31
2023-03-06T10:26:02.123Z,96006.56
2023-03-06T10:28:55.559Z,96004.59
2023-03-06T10:31:27.122Z,96003.94
2023-03-06T10:33:59.672Z,96009.50
2023-03-06T10:36:28.521Z,96005.72
2023-03-06T10:38:57.092Z,96004.22
2023-03-06T10:41:35.788Z,96003.75
2023-03-06T10:44:05.203Z,96005.03
2023-03-06T10:46:37.245Z,96005.28
2023-03-06T10:49:23.339Z,96004.25
2023-03-06T10:51:57.292Z,96002.13
2023-03-06T10:54:24.205Z,96005.78
2023-03-06T10:56:50.661Z,96007.00
2023-03-06T10:59:18.753Z,96006.88
2023-03-06T11:01:48.439Z,96002.47
2023-03-06T11:04:22.665Z,96007.59
2023-03-06T11:07:04.359Z,96002.56
2023-03-06T11:09:30.745Z,95997.16
2023-03-06T11:12:27.559Z,95996.81
2023-03-06T11:15:21.288Z,95997.47
2023-03-06T11:17:49.285Z,95997.28
2023-03-06T11:20:18.829Z,95987.56
2023-03-06T11:23:03.221Z,95993.25
2023-03-06T11:25:38.592Z,95989.28
2023-03-06T11:28:26.113Z,95991.63
2023-03-06T11:30:59.633Z,95983.28
2023-03-06T11:33:36.829Z,95981.94
2023-03-06T11:36:17.205Z,95981.34
2023-03-06T11:38:50.036Z,95982.03
2023-03-06T11:41:33.742Z,95977.19
2023-03-06T11:44:19.867Z,95966.09
2023-03-06T11:47:08.438Z,95970.91
2023-03-06T11:50:00.938Z,95967.06
2023-03-06T11:52:38.069Z,95970.00
2023-03-06T11:55:04.629Z,95970.88
2023-03-06T11:57:52.510Z,95963.25
2023-03-06T12:00:32.857Z,95958.69
2023-03-06T12:03:32.676Z,95961.63
2023-03-06T12:06:25.362Z,95955.69
2023-03-06T12:09:09.383Z,95950.53
2023-03-06T12:11:42.402Z,95950.09
2023-03-06T12:14:33.525Z,95941.69
2023-03-06T12:17:24.372Z,95944.53
2023-03-06T12:20:18.848Z,95931.97
2023-03-06T12:23:02.523Z,95931.03
2023-03-06T12:25:42.381Z,95933.38
2023-03-06T12:28:25.121Z,95934.75
2023-03-06T12:31:10.304Z,95931.38
2023-03-06T12:33:56.276Z,95922.84
2023-03-06T12:36:51.173Z,95929.22
2023-03-06T12:39:31.779Z,95920.00
2023-03-06T12:42:27.449Z,95932.31
2023-03-06T12:45:18.678Z,95927.16
2023-03-06T12:47:47.305Z,95925.69
2023-03-06T12:50:20.589Z,95921.13
2023-03-06T12:52:48.096Z,95921.03
2023-03-06T12:55:21.174Z,95916.94
2023-03-06T12:57:49.455Z,95922.50
2023-03-06T13:00:38.771Z,95922.69
2023-03-06T13:03:19.895Z,95924.63
2023-03-06T13:06:13.173Z,95918.28
2023-03-06T13:09:11.090Z,95907.94
2023-03-06T13:11:43.541Z,95915.59
2023-03-06T13:14:54.637Z,95912.63
2023-03-06T13:17:24.872Z,95919.66
2023-03-06T13:20:12.933Z,95915.16
2023-03-06T13:22:47.200Z,95914.38
2023-03-06T13:25:34.151Z,95926.13
2023-03-06T13:28:04.020Z,95913.66
2023-03-06T13:30:36.662Z,95912.97
2023-03-06T13:33:36.317Z,95915.56
2023-03-06T13:36:23.081Z,95913.38
2023-03-06T13:38:52.144Z,95908.47
2023-03-06T13:41:27.855Z,95910.88
2023-03-06T13:44:26.149Z,95914.53
2023-03-06T13:47:19.405Z,95915.56
2023-03-06T13:49:48.255Z,95913.50
2023-03-06T13:52:34.049Z,95910.84
2023-03-06T13:55:18.002Z,95909.09
2023-03-06T13:57:50.168Z,95903.78
2023-03-06T14:00:37.147Z,95899.47
2023-03-06T14:03:33.989Z,95907.41
2023-03-06T14:06:00.450Z,95907.19
2023-03-06T14:08:31.996Z,95906.41
2023-03-06T14:11:13.564Z,95905.09
2023-03-06T14:13:48.633Z,95899.63
2023-03-06T14:16:37.570Z,95898.63
2023-03-06T14:19:17.204Z,95899.78
2023-03-06T14:21:51.124Z,95901.69
2023-03-06T14:24:20.199Z,95905.81
2023-03-06T14:26:49.784Z,95904.22
2023-03-06T14:29:20.089Z,95896.16
2023-03-06T14:31:50.486Z,95896.38
2023-03-06T14:34:23.909Z,95896.34
2023-03-06T14:36:53.485Z,95897.75
2023-03-06T14:39:21.535Z,95894.78
2023-03-06T14:41:48.047Z,95901.28
2023-03-06T14:44:17.834Z,95891.28
2023-03-06T14:46:46.147Z,95891.00
2023-03-06T14:49:15.203Z,95893.66
2023-03-06T14:51:45.114Z,95892.63
2023-03-06T14:54:34.747Z,95886.50
2023-03-06T14:57:12.102Z,95893.28
2023-03-06T14:59:50.772Z,95895.25
2023-03-06T15:02:23.843Z,95893.63
2023-03-06T15:04:58.214Z,95893.59
2023-03-06T15:07:30.436Z,95894.69
2023-03-06T15:09:58.186Z,95890.72
2023-03-06T15:12:24.568Z,95885.13
2023-03-06T15:15:00.187Z,95888.22
2023-03-06T15:17:40.785Z,95891.59
2023-03-06T15:20:28.352Z,95893.00
2023-03-06T15:22:55.366Z,95892.69
2023-03-06T15:25:26.533Z,95894.75
2023-03-06T15:28:18.456Z,95900.06
2023-03-06T15:31:21.173Z,95892.13
2023-03-06T15:34:26.125Z,95896.63
2023-03-06T15:37:01.344Z,95881.91
2023-03-06T15:39:41.378Z,95890.50
2023-03-06T15:42:20.506Z,95885.66
2023-03-06T15:44:53.015Z,95888.19
2023-03-06T15:47:20.123Z,95888.22
2023-03-06T15:49:46.818Z,95889.56
2023-03-06T15:52:13.329Z,95885.97
2023-03-06T15:54:39.870Z,95887.47
2023-03-06T15:57:08.592Z,95882.91
2023-03-06T15:59:42.842Z,95884.56
2023-03-06T16:02:18.426Z,95889.09
2023-03-06T16:04:45.264Z,95890.25
2023-03-06T16:07:12.505Z,95892.44
2023-03-06T16:09:40.368Z,95890.81
2023-03-06T16:12:13.804Z,95884.56
2023-03-06T16:14:40.422Z,95899.66
2023-03-06T16:17:06.872Z,95898.66
2023-03-06T16:19:33.305Z,95894.84
2023-03-06T16:21:59.826Z,95893.94
2023-03-06T16:24:26.609Z,95887.09
2023-03-06T16:26:54.866Z,95897.59
2023-03-06T16:29:22.671Z,95903.13
2023-03-06T16:31:49.262Z,95904.16
2023-03-06T16:34:15.729Z,95907.94
2023-03-06T16:36:42.518Z,95896.63
2023-03-06T16:39:17.040Z,95896.44
2023-03-06T16:41:45.791Z,95899.38
2023-03-06T16:44:12.925Z,95909.97
2023-03-06T16:46:42.555Z,95903.63
2023-03-06T16:49:24.522Z,95913.88
2023-03-06T16:51:51.705Z,95917.34
2023-03-06T16:54:18.090Z,95915.38
2023-03-06T16:56:45.049Z,95918.34
2023-03-06T16:59:11.921Z,95913.13
2023-03-06T17:01:40.635Z,95915.81
2023-03-06T17:04:07.123Z,95921.03
2023-03-06T17:06:33.597Z,95922.59
2023-03-06T17:09:00.166Z,95921.94
2023-03-06T17:11:27.199Z,95923.44
2023-03-06T17:13:55.218Z,95926.97
2023-03-06T17:16:21.952Z,95928.06
2023-03-06T17:18:49.489Z,95928.16
2023-03-06T17:21:16.229Z,95930.13
2023-03-06T17:23:43.064Z,95933.19
2023-03-06T17:26:20.982Z,95934.19
2023-03-06T17:28:47.637Z,95936.75
2023-03-06T17:31:26.506Z,95944.97
2023-03-06T17:33:57.120Z,95937.22
2023-03-06T17:36:23.576Z,95943.97
2023-03-06T17:38:50.032Z,95944.53
2023-03-06T17:41:16.482Z,95946.41
2023-03-06T17:43:42.919Z,95941.53
2023-03-06T17:46:12.472Z,95948.31
2023-03-06T17:48:39.808Z,95948.13
2023-03-06T17:51:07.442Z,95942.91
2023-03-06T17:53:34.178Z,95949.59
2023-03-06T17:56:03.965Z,95953.50
2023-03-06T17:58:30.476Z,95951.75
2023-03-06T18:00:57.144Z,95948.56
2023-03-06T18:03:23.682Z,95951.25
2023-03-06T18:06:04.140Z,95950.28
2023-03-06T18:08:32.099Z,95952.34
2023-03-06T18:11:00.339Z,95951.50
2023-03-06T18:13:26.700Z,95953.44
2023-03-06T18:15:53.160Z,95955.25
2023-03-06T18:18:20.319Z,95953.75
2023-03-06T18:20:47.324Z,95956.97
2023-03-06T18:23:14.180Z,95954.66
2023-03-06T18:25:41.386Z,95954.72
2023-03-06T18:28:07.825Z,95955.03
2023-03-06T18:30:38.989Z,95961.69
2023-03-06T18:33:05.394Z,95958.59
2023-03-06T18:35:33.589Z,95963.28
2023-03-06T18:38:00.043Z,95960.59
2023-03-06T18:40:26.788Z,95967.00
2023-03-06T18:42:54.744Z,95973.84
2023-03-06T18:45:21.342Z,95970.00
2023-03-06T18:47:48.055Z,95969.00
2023-03-06T18:50:17.413Z,95963.22
2023-03-06T18:52:44.663Z,95963.59
2023-03-06T18:55:11.815Z,95968.69
2023-03-06T18:57:38.726Z,95964.31
2023-03-06T19:00:06.561Z,95962.03
2023-03-06T19:02:33.115Z,95960.34
2023-03-06T19:04:59.558Z,95958.88
2023-03-06T19:07:25.975Z,95960.44
2023-03-06T19:09:52.507Z,95969.81
2023-03-06T19:12:18.950Z,95967.09
2023-03-06T19:14:45.382Z,95961.97
2023-03-06T19:17:12.054Z,95970.22
2023-03-06T19:19:38.790Z,95970.25
2023-03-06T19:22:05.250Z,95975.22
2023-03-06T19:24:31.707Z,95971.75
2023-03-06T19:26:58.078Z,95977.44
2023-03-06T19:29:24.600Z,95968.28
2023-03-06T19:31:52.087Z,95977.19
2023-03-06T19:34:18.710Z,95973.50
2023-03-06T19:36:45.155Z,95970.41
2023-03-06T19:39:11.554Z,95968.13
2023-03-06T19:41:37.974Z,95972.16
2023-03-06T19:44:05.985Z,95962.91
2023-03-06T19:46:33.233Z,95970.13
2023-03-06T19:49:01.903Z,95968.34
2023-03-06T19:51:29.244Z,95966.47
2023-03-06T19:53:56.811Z,95966.91
2023-03-06T19:56:29.179Z,95960.91
2023-03-06T19:58:56.213Z,95961.56
2023-03-06T20:01:25.040Z,95956.66
2023-03-06T20:03:58.299Z,95960.09
2023-03-06T20:06:27.099Z,95954.16
2023-03-06T20:08:53.893Z,95954.88
2023-03-06T20:11:23.360Z,95955.09
2023-03-06T20:13:50.232Z,95953.09
2023-03-06T20:16:17.638Z,95945.94
2023-03-06T20:18:45.395Z,95944.09
2023-03-06T20:21:12.111Z,95950.63
2023-03-06T20:23:38.557Z,95946.13
2023-03-06T20:26:11.838Z,95950.28
2023-03-06T20:28:40.050Z,95947.84
2023-03-06T20:31:07.804Z,95951.63
2023-03-06T20:33:34.440Z,95942.84
2023-03-06T20:36:01.088Z,95948.63
2023-03-06T20:38:27.600Z,95948.16
2023-03-06T20:40:56.050Z,95939.47
2023-03-06T20:43:23.417Z,95934.94
2023-03-06T20:45:57.872Z,95938.53
2023-03-06T20:48:24.421Z,95938.44
2023-03-06T20:51:06.371Z,95941.09
2023-03-06T20:53:35.021Z,95933.59
2023-03-06T20:56:01.446Z,95927.75
2023-03-06T20:58:30.096Z,95936.66
2023-03-06T21:00:57.092Z,95935.56
2023-03-06T21:03:24.165Z,95927.59
2023-03-06T21:05:50.883Z,95932.63
2023-03-06T21:08:17.330Z,95934.47
2023-03-06T21:10:47.073Z,95922.16
2023-03-06T21:13:14.582Z,95925.91
2023-03-06T21:15:42.532Z,95920.03
2023-03-06T21:18:09.819Z,95922.69
2023-03-06T21:20:40.409Z,95912.03
2023-03-06T21:23:07.627Z,95920.41
2023-03-06T21:25:34.370Z,95911.13
2023-03-06T21:28:01.093Z,95911.06
2023-03-06T21:30:29.307Z,95916.59
2023-03-06T21:32:56.053Z,95908.22
2023-03-06T21:35:22.553Z,95904.31
2023-03-06T21:37:48.970Z,95902.41
2023-03-06T21:40:15.681Z,95896.84
2023-03-06T21:42:42.205Z,95889.75
2023-03-06T21:45:09.177Z,95895.56
2023-03-06T21:47:40.723Z,95890.75
2023-03-06T21:50:09.963Z,95891.16
2023-03-06T21:52:37.017Z,95887.31
2023-03-06T21:55:03.873Z,95883.84
2023-03-06T21:57:30.692Z,95885.47
2023-03-06T21:59:57.138Z,95889.09
2023-03-06T22:02:24.123Z,95879.78
2023-03-06T22:04:52.533Z,95884.84
2023-03-06T22:07:20.057Z,95886.69
2023-03-06T22:09:46.608Z,95876.81
2023-03-06T22:12:13.053Z,95881.91
2023-03-06T22:14:39.605Z,95871.34
2023-03-06T22:17:06.124Z,95878.56
2023-03-06T22:19:32.616Z,95867.28
2023-03-06T22:21:59.078Z,95870.66
2023-03-06T22:24:25.521Z,95869.97
2023-03-06T22:26:52.104Z,95876.69
2023-03-06T22:29:18.539Z,95869.50
2023-03-06T22:31:45.072Z,95868.00
2023-03-06T22:34:11.539Z,95878.22
2023-03-06T22:36:37.929Z,95872.56
2023-03-06T22:39:04.489Z,95868.31
2023-03-06T22:41:30.966Z,95865.34
2023-03-06T22:43:59.338Z,95870.19
2023-03-06T22:46:26.700Z,95862.91
2023-03-06T22:48:56.075Z,95873.44
2023-03-06T22:51:22.616Z,95871.53
2023-03-06T22:53:49.438Z,95868.13
2023-03-06T22:56:18.390Z,95865.81
2023-03-06T22:58:45.104Z,95864.09
2023-03-06T23:01:13.188Z,95866.41
2023-03-06T23:03:42.186Z,95855.00
2023-03-06T23:06:11.810Z,95855.13
2023-03-06T23:08:38.933Z,95849.63
2023-03-06T23:11:16.944Z,95856.31
2023-03-06T23:13:43.436Z,95845.13
2023-03-06T23:16:10.073Z,95858.75
2023-03-06T23:18:37.598Z,95849.19
2023-03-06T23:21:14.115Z,95849.03
2023-03-06T23:23:40.762Z,95842.47
2023-03-06T23:26:08.497Z,95842.31
2023-03-06T23:28:35.145Z,95834.88
2023-03-06T23:31:14.726Z,95839.47
2023-03-06T23:33:41.647Z,95846.25
2023-03-06T23:36:11.089Z,95840.31
2023-03-06T23:38:37.915Z,95840.88
2023-03-06T23:41:05.936Z,95833.28
2023-03-06T23:43:32.869Z,95834.28
2023-03-06T23:45:59.953Z,95840.66
2023-03-06T23:48:29.136Z,95841.53
2023-03-06T23:50:56.341Z,95827.75
2023-03-06T23:53:23.914Z,95827.50
2023-03-06T23:55:51.155Z,95823.00
2023-03-06T23:58:19.133Z,95826.94
